Fancy Gap, Virginia
Current Conditions -  °F | °C
As of 4:55 PM on Monday 20 Oct 2014 (Local Time) from KHLX Reporting Station
Overcast Overcast  
Wind Chill: 61°   Ceiling: 3800
Heat Index: 61°   Visibility: 10mi
Dew Point: 47°   Wind: 0mph
Humidity: 60%   Direction: NA
Pressure: 29.99"   Gusts: NA
Location:  36.67°N, 80.69°W
Report Text: KHLX 202055Z AUTO 00000KT 10SM BKN038 OVC045 16/08 A2999 RMK AO2 T01620084
Loading
Personal Weather Stations






























Interactive Weather Map
Tropical Storm Tracking
New forecast layout! Learn more

10-Day Weather Forecast

Advertisements
Track Severe Weather on mobile